Používateľ

Neprihlásený

Prihlásiť | Registrácia

Vyhľadávanie

Reklamy Google

Úvod · Holubárska nástenka · TS World Championship - Trening 6

TS World Championship - Trening 6

Obálka oznamu
Basketed Pigeons 716
Release Point Muak Lek 130 km.
Release Time 11/20/2013 6:50:00 AM
Distance 130
Arrived Pigeons 546

1 WYNANTS PETER & MYLAN -- BE B13-3131145 11/20/2013 08:01:08.90 1827.169
2 WYNANTS PETER & MYLAN -- BE B13-3123030 11/20/2013 08:01:09.50 1826.912
3 HARTOG INTERNATIONAL -- NL NL13-1488968 11/20/2013 08:01:10.40 1826.527
4 PALMY-SAEBOY-8 RIEW TEAM -- TH CHN13-183675 11/20/2013 08:01:10.50 1826.484
5 HARTOG INTERNATIONAL -- NL NL13-1488902 11/20/2013 08:01:10.80 1826.356
6 MULAN-SEA BOY -- TH THK13-23232 R 11/20/2013 08:01:11.20 1826.185
7 PILOT TEAM -- TH THK13-23272 R 11/20/2013 08:01:11.60 1826.014
8 DEBACKER-DENOYETTE-GRAVEEL -- BE B13-4036429 11/20/2013 08:01:12.70 1825.544
9 HR BART QUALM -- NL NL13-1190984 11/20/2013 08:01:14.10 1824.946
10 PERMSAK-VICHIEN -- TH THK13-89211 H 11/20/2013 08:01:16.50 1823.921

Umiestnenie Slovenskych holubov:
21 MOLNAR + DURRIS -- SK SK13-0603-1330 11/20/2013 08:01:31.80 1817.419
399 A. & D. KRAJCIK -- SK SK13-01106-754 11/20/2013 08:08:54.10 1647.62

--------------------------------------------------------------------------------------------------------
Basketed Pigeons 1787
Release Point Muak Lek 130 km.
Release Time 11/20/2013 6:50:00 AM
Distance 130
Arrived Pigeons 1641

1 PHANORURA -- TH THN13-82094 H 11/20/2013 08:01:07.60 1827.725
2 POLLIN MARC & JO PORNNAPA -- TH THN13-85551 H 11/20/2013 08:01:08.60 1827.297
3 WYCKMANS LUC -- BE B13-6278093 11/20/2013 08:01:08.80 1827.211
4 CHANACHA WATTANA -- TH THN13-89783 H 11/20/2013 08:01:10.50 1826.484
5 SUTHEP-ANGUN -- TH THN13-01030 C 11/20/2013 08:01:11.50 1826.056
6 CHANACHAI-WANTIRACH -- TH THN13-89787 H 11/20/2013 08:01:11.70 1825.971
7 VISUTH SUEMARK -- TH THN13-17822 R 11/20/2013 08:01:12.20 1825.757
8 SUTHEP-ANGUN -- TH THN13-01026 C 11/20/2013 08:01:12.40 1825.672
9 KNUT LUNDSTEN -- SE S13-13-250 11/20/2013 08:01:12.60 1825.586
10 SIRISAK SAETEA -- TH THN13-91498 H 11/20/2013 08:01:13.90 1825.031

Umiestnenie Slovenskych holubov:
43 CHALUPA PAVOL -- SK SK13-0208-282 11/20/2013 08:01:26.30 1819.751
96 DR. ROCH PETER -- SK SK13-02703-1402 11/20/2013 08:02:11.00 1800.97
124 KRISTEV TOMAS -- SK SK13-02703-300 11/20/2013 08:02:18.30 1797.939
176 BALAZ STEFAN -- SK SK13-0208-73 11/20/2013 08:02:31.80 1792.362
410 CHALUPA PAVOL -- SK SK13-0207-47 11/20/2013 08:03:40.40 1764.546
459 VALIGA ANTON + ZUZANA -- SK SK13-02703-902 11/20/2013 08:03:49.60 1760.881
496 A. & D. KRAJCIK -- SK SK13-01106-751 11/20/2013 08:03:56.10 1758.301
553 BALAZ STEFAN -- SK SK13-55M-2760 11/20/2013 08:04:10.10 1752.77
560 ING. FEKIAC JOSEF -- SK SK13-01905-1237 11/20/2013 08:04:11.20 1752.336
571 SILLO IGOR -- SK SK13-0107-1482 11/20/2013 08:04:13.60 1751.392
574 VALIGA ANTON + ZUZANA -- SK SK13-02703-804 11/20/2013 08:04:14.40 1751.078
597 ING. FEKIAC JOSEF -- SK SK13-01905-1234 11/20/2013 08:04:21.90 1748.134
667 BALAZ STEFAN -- SK SK13-55M-2759 11/20/2013 08:04:36.10 1742.588
690 VALIGA ANTON + ZUZANA -- SK SK13-02703-814 11/20/2013 08:04:42.10 1740.256
749 LUKOVICOVI JOZEF & EVA -- SK SK13-0101-2607* 11/20/2013 08:04:58.50 1733.911
840 BRKAL JAN -- SK SK13-0603-37 11/20/2013 08:05:27.60 1722.767
858 VALIGA ANTON + MAZKA -- SK SK13-02703-959 11/20/2013 08:05:33.90 1720.373
962 ING. FEKIAC JOSEF -- SK SK13-01905-1232 11/20/2013 08:06:09.10 1707.12
1255 LUKOVICOVI JOZEF & EVA -- SK SK13-0101-2610 11/20/2013 08:09:27.50 1636.078
1308 SILLO IGOR -- SK SK13-0107-1495 11/20/2013 08:10:12.50 1620.779
1358 MOLNAR + DURRIS -- SK SK13-0603-1375 11/20/2013 08:10:43.00 1610.572
1486 KRISTEV TOMAS -- SK SK13-02703-220 11/20/2013 08:13:05.70 1564.474

http://one-loft-race.net/show_loft.aspx?loft_id=18

Pridané: 20 novembra 2013, 18:22 | Zobrazené: 1114xPridal: Štefan Varga


Počet komentárov: 0


Pridať komentár

 

Z nášho obchodu

Prejsť do obchodu

Reklama